sensor_id;sensor_type;location;lat;lon;timestamp;P1;durP1;ratioP1;P2;durP2;ratioP2
22939;SDS011;11636;52.086;5.090;2023-10-31T00:02:04;19.10;;;10.85;;
22939;SDS011;11636;52.086;5.090;2023-10-31T00:04:37;21.30;;;12.00;;
22939;SDS011;11636;52.086;5.090;2023-10-31T00:07:04;21.90;;;12.10;;
22939;SDS011;11636;52.086;5.090;2023-10-31T00:09:37;21.10;;;12.23;;
22939;SDS011;11636;52.086;5.090;2023-10-31T00:12:05;20.45;;;13.07;;
22939;SDS011;11636;52.086;5.090;2023-10-31T00:14:39;22.40;;;12.68;;
22939;SDS011;11636;52.086;5.090;2023-10-31T00:17:12;19.38;;;11.75;;
22939;SDS011;11636;52.086;5.090;2023-10-31T00:19:45;19.98;;;11.88;;
22939;SDS011;11636;52.086;5.090;2023-10-31T00:22:12;17.92;;;12.23;;
22939;SDS011;11636;52.086;5.090;2023-10-31T00:24:45;18.40;;;12.23;;
22939;SDS011;11636;52.086;5.090;2023-10-31T00:27:12;20.80;;;12.60;;
22939;SDS011;11636;52.086;5.090;2023-10-31T00:29:45;21.38;;;13.32;;
22939;SDS011;11636;52.086;5.090;2023-10-31T00:32:18;22.23;;;12.82;;
22939;SDS011;11636;52.086;5.090;2023-10-31T00:34:45;18.40;;;12.25;;
22939;SDS011;11636;52.086;5.090;2023-10-31T00:37:18;13.75;;;9.15;;
22939;SDS011;11636;52.086;5.090;2023-10-31T00:39:45;15.40;;;8.98;;
22939;SDS011;11636;52.086;5.090;2023-10-31T00:42:18;14.15;;;8.23;;
22939;SDS011;11636;52.086;5.090;2023-10-31T00:44:45;15.88;;;7.40;;
22939;SDS011;11636;52.086;5.090;2023-10-31T00:47:18;10.02;;;5.72;;
22939;SDS011;11636;52.086;5.090;2023-10-31T00:49:45;11.13;;;4.35;;
22939;SDS011;11636;52.086;5.090;2023-10-31T00:52:18;11.18;;;3.22;;
22939;SDS011;11636;52.086;5.090;2023-10-31T00:54:45;8.52;;;2.90;;
22939;SDS011;11636;52.086;5.090;2023-10-31T00:57:12;11.07;;;3.03;;
22939;SDS011;11636;52.086;5.090;2023-10-31T00:59:45;9.38;;;2.65;;
22939;SDS011;11636;52.086;5.090;2023-10-31T01:02:12;11.20;;;2.55;;
22939;SDS011;11636;52.086;5.090;2023-10-31T01:04:45;9.07;;;2.95;;
22939;SDS011;11636;52.086;5.090;2023-10-31T01:07:12;8.82;;;2.65;;
22939;SDS011;11636;52.086;5.090;2023-10-31T01:09:49;11.00;;;4.25;;
22939;SDS011;11636;52.086;5.090;2023-10-31T01:12:16;13.13;;;5.55;;
22939;SDS011;11636;52.086;5.090;2023-10-31T01:14:50;19.08;;;8.15;;
22939;SDS011;11636;52.086;5.090;2023-10-31T01:17:17;21.00;;;9.95;;
22939;SDS011;11636;52.086;5.090;2023-10-31T01:19:50;23.95;;;12.00;;
22939;SDS011;11636;52.086;5.090;2023-10-31T01:22:17;22.55;;;11.82;;
22939;SDS011;11636;52.086;5.090;2023-10-31T01:24:51;20.80;;;11.77;;
22939;SDS011;11636;52.086;5.090;2023-10-31T01:27:18;32.47;;;15.52;;
22939;SDS011;11636;52.086;5.090;2023-10-31T01:29:51;30.08;;;15.38;;
22939;SDS011;11636;52.086;5.090;2023-10-31T01:32:18;29.20;;;15.40;;
22939;SDS011;11636;52.086;5.090;2023-10-31T01:34:48;26.25;;;14.55;;
22939;SDS011;11636;52.086;5.090;2023-10-31T01:37:21;29.90;;;16.52;;
22939;SDS011;11636;52.086;5.090;2023-10-31T01:39:48;28.60;;;16.05;;
22939;SDS011;11636;52.086;5.090;2023-10-31T01:42:21;28.20;;;15.80;;
22939;SDS011;11636;52.086;5.090;2023-10-31T01:44:48;34.95;;;16.65;;
22939;SDS011;11636;52.086;5.090;2023-10-31T01:47:21;29.75;;;14.93;;
22939;SDS011;11636;52.086;5.090;2023-10-31T01:49:50;25.20;;;14.93;;
22939;SDS011;11636;52.086;5.090;2023-10-31T01:52:25;26.92;;;13.85;;
22939;SDS011;11636;52.086;5.090;2023-10-31T01:54:52;24.95;;;12.90;;
22939;SDS011;11636;52.086;5.090;2023-10-31T01:57:26;19.38;;;11.02;;
22939;SDS011;11636;52.086;5.090;2023-10-31T01:59:59;23.23;;;11.07;;
22939;SDS011;11636;52.086;5.090;2023-10-31T02:02:26;15.75;;;9.10;;
22939;SDS011;11636;52.086;5.090;2023-10-31T02:04:55;18.35;;;9.63;;
22939;SDS011;11636;52.086;5.090;2023-10-31T02:07:29;18.48;;;9.55;;
22939;SDS011;11636;52.086;5.090;2023-10-31T02:10:09;20.77;;;9.45;;
22939;SDS011;11636;52.086;5.090;2023-10-31T02:12:42;19.02;;;9.02;;
22939;SDS011;11636;52.086;5.090;2023-10-31T02:15:09;21.85;;;10.18;;
22939;SDS011;11636;52.086;5.090;2023-10-31T02:17:42;18.85;;;10.20;;
22939;SDS011;11636;52.086;5.090;2023-10-31T02:20:15;21.70;;;10.15;;
22939;SDS011;11636;52.086;5.090;2023-10-31T02:22:42;19.02;;;10.80;;
22939;SDS011;11636;52.086;5.090;2023-10-31T02:25:16;16.98;;;9.95;;
22939;SDS011;11636;52.086;5.090;2023-10-31T02:27:44;24.00;;;11.15;;
22939;SDS011;11636;52.086;5.090;2023-10-31T02:30:17;24.80;;;11.77;;
22939;SDS011;11636;52.086;5.090;2023-10-31T02:32:44;20.38;;;10.57;;
22939;SDS011;11636;52.086;5.090;2023-10-31T02:35:19;20.02;;;11.30;;
22939;SDS011;11636;52.086;5.090;2023-10-31T02:37:46;19.75;;;11.02;;
22939;SDS011;11636;52.086;5.090;2023-10-31T02:40:20;20.60;;;11.43;;
22939;SDS011;11636;52.086;5.090;2023-10-31T02:42:47;21.67;;;11.00;;
22939;SDS011;11636;52.086;5.090;2023-10-31T02:45:20;23.30;;;11.55;;
22939;SDS011;11636;52.086;5.090;2023-10-31T02:47:47;21.23;;;10.90;;
22939;SDS011;11636;52.086;5.090;2023-10-31T02:50:20;21.38;;;10.73;;
22939;SDS011;11636;52.086;5.090;2023-10-31T02:52:53;18.30;;;9.88;;
22939;SDS011;11636;52.086;5.090;2023-10-31T02:55:20;19.25;;;10.00;;
22939;SDS011;11636;52.086;5.090;2023-10-31T02:57:53;17.90;;;9.35;;
22939;SDS011;11636;52.086;5.090;2023-10-31T03:00:20;13.90;;;7.63;;
22939;SDS011;11636;52.086;5.090;2023-10-31T03:02:53;17.77;;;6.25;;
22939;SDS011;11636;52.086;5.090;2023-10-31T03:05:20;13.98;;;5.10;;
22939;SDS011;11636;52.086;5.090;2023-10-31T03:07:53;10.48;;;3.67;;
22939;SDS011;11636;52.086;5.090;2023-10-31T03:10:20;10.95;;;3.72;;
22939;SDS011;11636;52.086;5.090;2023-10-31T03:12:54;6.32;;;2.90;;
22939;SDS011;11636;52.086;5.090;2023-10-31T03:15:21;11.57;;;3.17;;
22939;SDS011;11636;52.086;5.090;2023-10-31T03:17:54;7.93;;;2.45;;
22939;SDS011;11636;52.086;5.090;2023-10-31T03:20:21;7.15;;;2.28;;
22939;SDS011;11636;52.086;5.090;2023-10-31T03:22:54;8.23;;;2.20;;
22939;SDS011;11636;52.086;5.090;2023-10-31T03:25:21;9.32;;;2.90;;
22939;SDS011;11636;52.086;5.090;2023-10-31T03:27:56;8.40;;;2.78;;
22939;SDS011;11636;52.086;5.090;2023-10-31T03:30:23;9.80;;;3.47;;
22939;SDS011;11636;52.086;5.090;2023-10-31T03:32:56;10.32;;;3.47;;
22939;SDS011;11636;52.086;5.090;2023-10-31T03:35:23;8.98;;;3.70;;
22939;SDS011;11636;52.086;5.090;2023-10-31T03:37:57;6.93;;;3.53;;
22939;SDS011;11636;52.086;5.090;2023-10-31T03:40:24;8.75;;;3.35;;
22939;SDS011;11636;52.086;5.090;2023-10-31T03:42:57;7.78;;;3.42;;
22939;SDS011;11636;52.086;5.090;2023-10-31T03:45:24;10.93;;;3.92;;
22939;SDS011;11636;52.086;5.090;2023-10-31T03:47:57;9.52;;;3.78;;
22939;SDS011;11636;52.086;5.090;2023-10-31T03:50:25;13.10;;;4.03;;
22939;SDS011;11636;52.086;5.090;2023-10-31T03:52:52;8.05;;;3.45;;
22939;SDS011;11636;52.086;5.090;2023-10-31T03:55:26;8.40;;;3.22;;
22939;SDS011;11636;52.086;5.090;2023-10-31T03:57:59;11.18;;;2.35;;
22939;SDS011;11636;52.086;5.090;2023-10-31T04:00:26;7.82;;;2.60;;
22939;SDS011;11636;52.086;5.090;2023-10-31T04:02:59;4.65;;;1.80;;
22939;SDS011;11636;52.086;5.090;2023-10-31T04:05:34;6.60;;;1.70;;
22939;SDS011;11636;52.086;5.090;2023-10-31T04:08:01;4.40;;;1.23;;
22939;SDS011;11636;52.086;5.090;2023-10-31T04:10:34;5.88;;;1.10;;
22939;SDS011;11636;52.086;5.090;2023-10-31T04:13:01;4.18;;;1.10;;
22939;SDS011;11636;52.086;5.090;2023-10-31T04:15:35;4.40;;;1.00;;
22939;SDS011;11636;52.086;5.090;2023-10-31T04:18:02;4.63;;;0.93;;
22939;SDS011;11636;52.086;5.090;2023-10-31T04:20:36;3.58;;;0.93;;
22939;SDS011;11636;52.086;5.090;2023-10-31T04:23:03;3.30;;;0.80;;
22939;SDS011;11636;52.086;5.090;2023-10-31T04:25:37;4.22;;;0.70;;
22939;SDS011;11636;52.086;5.090;2023-10-31T04:28:04;7.60;;;1.00;;
22939;SDS011;11636;52.086;5.090;2023-10-31T04:30:37;3.13;;;0.90;;
22939;SDS011;11636;52.086;5.090;2023-10-31T04:33:10;2.85;;;0.90;;
22939;SDS011;11636;52.086;5.090;2023-10-31T04:35:37;6.63;;;1.30;;
22939;SDS011;11636;52.086;5.090;2023-10-31T04:38:10;4.47;;;1.80;;
22939;SDS011;11636;52.086;5.090;2023-10-31T04:40:37;5.45;;;2.10;;
22939;SDS011;11636;52.086;5.090;2023-10-31T04:43:10;6.72;;;2.58;;
22939;SDS011;11636;52.086;5.090;2023-10-31T04:45:37;6.85;;;2.13;;
22939;SDS011;11636;52.086;5.090;2023-10-31T04:48:11;7.05;;;2.63;;
22939;SDS011;11636;52.086;5.090;2023-10-31T04:50:40;7.38;;;2.90;;
22939;SDS011;11636;52.086;5.090;2023-10-31T04:53:12;4.95;;;2.50;;
22939;SDS011;11636;52.086;5.090;2023-10-31T04:55:39;5.05;;;2.35;;
22939;SDS011;11636;52.086;5.090;2023-10-31T04:58:12;6.18;;;2.75;;
22939;SDS011;11636;52.086;5.090;2023-10-31T05:00:39;4.50;;;2.17;;
22939;SDS011;11636;52.086;5.090;2023-10-31T05:03:13;6.72;;;2.60;;
22939;SDS011;11636;52.086;5.090;2023-10-31T05:05:43;6.82;;;2.15;;
22939;SDS011;11636;52.086;5.090;2023-10-31T05:08:10;6.50;;;2.45;;
22939;SDS011;11636;52.086;5.090;2023-10-31T05:10:43;5.57;;;2.28;;
22939;SDS011;11636;52.086;5.090;2023-10-31T05:13:13;6.82;;;2.60;;
22939;SDS011;11636;52.086;5.090;2023-10-31T05:15:46;7.95;;;2.95;;
22939;SDS011;11636;52.086;5.090;2023-10-31T05:18:13;8.15;;;3.30;;
22939;SDS011;11636;52.086;5.090;2023-10-31T05:20:46;5.45;;;3.45;;
22939;SDS011;11636;52.086;5.090;2023-10-31T05:23:13;10.05;;;4.00;;
22939;SDS011;11636;52.086;5.090;2023-10-31T05:25:46;9.43;;;4.97;;
22939;SDS011;11636;52.086;5.090;2023-10-31T05:28:13;10.00;;;5.13;;
22939;SDS011;11636;52.086;5.090;2023-10-31T05:30:46;11.88;;;6.68;;
22939;SDS011;11636;52.086;5.090;2023-10-31T05:33:16;14.73;;;7.82;;
22939;SDS011;11636;52.086;5.090;2023-10-31T05:35:49;15.07;;;7.85;;
22939;SDS011;11636;52.086;5.090;2023-10-31T05:38:17;13.18;;;8.30;;
22939;SDS011;11636;52.086;5.090;2023-10-31T05:40:49;14.50;;;8.85;;
22939;SDS011;11636;52.086;5.090;2023-10-31T05:43:16;13.57;;;8.50;;
22939;SDS011;11636;52.086;5.090;2023-10-31T05:45:49;12.82;;;7.15;;
22939;SDS011;11636;52.086;5.090;2023-10-31T05:48:16;10.82;;;6.18;;
22939;SDS011;11636;52.086;5.090;2023-10-31T05:50:49;11.13;;;6.00;;
22939;SDS011;11636;52.086;5.090;2023-10-31T05:53:16;7.22;;;3.95;;
22939;SDS011;11636;52.086;5.090;2023-10-31T05:55:50;7.88;;;3.45;;
22939;SDS011;11636;52.086;5.090;2023-10-31T05:58:17;7.30;;;2.95;;
22939;SDS011;11636;52.086;5.090;2023-10-31T06:00:49;4.78;;;2.20;;
22939;SDS011;11636;52.086;5.090;2023-10-31T06:03:16;5.60;;;1.60;;
22939;SDS011;11636;52.086;5.090;2023-10-31T06:05:51;4.75;;;1.63;;
22939;SDS011;11636;52.086;5.090;2023-10-31T06:08:17;5.25;;;1.58;;
22939;SDS011;11636;52.086;5.090;2023-10-31T06:10:44;3.95;;;1.27;;
22939;SDS011;11636;52.086;5.090;2023-10-31T06:13:17;6.13;;;2.03;;
22939;SDS011;11636;52.086;5.090;2023-10-31T06:15:44;6.95;;;1.33;;
22939;SDS011;11636;52.086;5.090;2023-10-31T06:18:18;6.80;;;1.67;;
22939;SDS011;11636;52.086;5.090;2023-10-31T06:20:44;4.15;;;1.17;;
22939;SDS011;11636;52.086;5.090;2023-10-31T06:23:17;5.63;;;1.05;;
22939;SDS011;11636;52.086;5.090;2023-10-31T06:25:44;4.28;;;1.10;;
22939;SDS011;11636;52.086;5.090;2023-10-31T06:28:18;3.80;;;0.90;;
22939;SDS011;11636;52.086;5.090;2023-10-31T06:30:44;4.00;;;1.27;;
22939;SDS011;11636;52.086;5.090;2023-10-31T06:33:18;8.15;;;1.85;;
22939;SDS011;11636;52.086;5.090;2023-10-31T06:35:44;4.50;;;1.30;;
22939;SDS011;11636;52.086;5.090;2023-10-31T06:38:18;6.82;;;1.75;;
22939;SDS011;11636;52.086;5.090;2023-10-31T06:40:45;4.95;;;1.98;;
22939;SDS011;11636;52.086;5.090;2023-10-31T06:43:19;4.63;;;1.80;;
22939;SDS011;11636;52.086;5.090;2023-10-31T06:45:45;6.82;;;1.55;;
22939;SDS011;11636;52.086;5.090;2023-10-31T06:48:20;3.55;;;1.50;;
22939;SDS011;11636;52.086;5.090;2023-10-31T06:50:46;3.53;;;1.15;;
22939;SDS011;11636;52.086;5.090;2023-10-31T06:53:13;5.22;;;1.60;;
22939;SDS011;11636;52.086;5.090;2023-10-31T06:55:47;4.93;;;1.40;;
22939;SDS011;11636;52.086;5.090;2023-10-31T06:58:21;9.73;;;1.55;;
22939;SDS011;11636;52.086;5.090;2023-10-31T07:00:47;6.10;;;1.88;;
22939;SDS011;11636;52.086;5.090;2023-10-31T07:03:20;4.93;;;1.50;;
22939;SDS011;11636;52.086;5.090;2023-10-31T07:05:54;6.95;;;1.67;;
22939;SDS011;11636;52.086;5.090;2023-10-31T07:08:22;7.05;;;2.10;;
22939;SDS011;11636;52.086;5.090;2023-10-31T07:10:56;5.40;;;1.80;;
22939;SDS011;11636;52.086;5.090;2023-10-31T07:13:26;5.25;;;2.45;;
22939;SDS011;11636;52.086;5.090;2023-10-31T07:15:59;4.93;;;1.70;;
22939;SDS011;11636;52.086;5.090;2023-10-31T07:18:25;9.23;;;1.90;;
22939;SDS011;11636;52.086;5.090;2023-10-31T07:20:59;5.63;;;1.63;;
22939;SDS011;11636;52.086;5.090;2023-10-31T07:23:26;3.53;;;1.60;;
22939;SDS011;11636;52.086;5.090;2023-10-31T07:26:01;4.70;;;1.70;;
22939;SDS011;11636;52.086;5.090;2023-10-31T07:28:28;3.42;;;1.75;;
22939;SDS011;11636;52.086;5.090;2023-10-31T07:31:07;6.97;;;3.22;;
22939;SDS011;11636;52.086;5.090;2023-10-31T07:33:34;11.35;;;3.60;;
22939;SDS011;11636;52.086;5.090;2023-10-31T07:36:08;7.07;;;4.22;;
22939;SDS011;11636;52.086;5.090;2023-10-31T07:38:35;8.23;;;3.45;;
22939;SDS011;11636;52.086;5.090;2023-10-31T07:41:09;5.20;;;2.88;;
22939;SDS011;11636;52.086;5.090;2023-10-31T07:43:35;6.40;;;2.80;;
22939;SDS011;11636;52.086;5.090;2023-10-31T07:46:09;5.72;;;3.17;;
22939;SDS011;11636;52.086;5.090;2023-10-31T07:48:42;5.43;;;3.17;;
22939;SDS011;11636;52.086;5.090;2023-10-31T07:51:08;6.72;;;3.55;;
22939;SDS011;11636;52.086;5.090;2023-10-31T07:53:42;6.72;;;3.80;;
22939;SDS011;11636;52.086;5.090;2023-10-31T07:56:15;9.40;;;4.15;;
22939;SDS011;11636;52.086;5.090;2023-10-31T07:58:55;6.80;;;3.65;;
22939;SDS011;11636;52.086;5.090;2023-10-31T08:01:22;7.38;;;4.40;;
22939;SDS011;11636;52.086;5.090;2023-10-31T08:03:55;8.73;;;4.30;;
22939;SDS011;11636;52.086;5.090;2023-10-31T08:06:22;7.13;;;4.03;;
22939;SDS011;11636;52.086;5.090;2023-10-31T08:08:55;10.75;;;4.22;;
22939;SDS011;11636;52.086;5.090;2023-10-31T08:11:21;8.50;;;4.05;;
22939;SDS011;11636;52.086;5.090;2023-10-31T08:13:55;10.13;;;4.55;;
22939;SDS011;11636;52.086;5.090;2023-10-31T08:16:22;9.27;;;4.35;;
22939;SDS011;11636;52.086;5.090;2023-10-31T08:18:56;11.82;;;5.30;;
22939;SDS011;11636;52.086;5.090;2023-10-31T08:21:22;10.18;;;4.47;;
22939;SDS011;11636;52.086;5.090;2023-10-31T08:23:56;5.97;;;3.75;;
22939;SDS011;11636;52.086;5.090;2023-10-31T08:26:23;10.13;;;4.60;;
22939;SDS011;11636;52.086;5.090;2023-10-31T08:28:56;11.68;;;4.53;;
22939;SDS011;11636;52.086;5.090;2023-10-31T08:31:23;8.98;;;4.55;;
22939;SDS011;11636;52.086;5.090;2023-10-31T08:33:57;12.75;;;5.20;;
22939;SDS011;11636;52.086;5.090;2023-10-31T08:36:30;10.98;;;5.03;;
22939;SDS011;11636;52.086;5.090;2023-10-31T08:39:03;13.20;;;5.10;;
22939;SDS011;11636;52.086;5.090;2023-10-31T08:41:30;10.35;;;5.10;;
22939;SDS011;11636;52.086;5.090;2023-10-31T08:44:03;11.85;;;5.63;;
22939;SDS011;11636;52.086;5.090;2023-10-31T08:46:30;13.57;;;6.15;;
22939;SDS011;11636;52.086;5.090;2023-10-31T08:48:57;12.07;;;6.00;;
22939;SDS011;11636;52.086;5.090;2023-10-31T08:51:30;16.63;;;7.43;;
22939;SDS011;11636;52.086;5.090;2023-10-31T08:53:56;13.70;;;7.28;;
22939;SDS011;11636;52.086;5.090;2023-10-31T08:56:31;14.52;;;7.15;;
22939;SDS011;11636;52.086;5.090;2023-10-31T08:58:58;13.50;;;8.00;;
22939;SDS011;11636;52.086;5.090;2023-10-31T09:01:31;14.98;;;7.93;;
22939;SDS011;11636;52.086;5.090;2023-10-31T09:04:00;18.67;;;8.10;;
22939;SDS011;11636;52.086;5.090;2023-10-31T09:06:34;15.77;;;7.88;;
22939;SDS011;11636;52.086;5.090;2023-10-31T09:09:07;11.38;;;7.50;;
22939;SDS011;11636;52.086;5.090;2023-10-31T09:11:40;11.52;;;7.65;;
22939;SDS011;11636;52.086;5.090;2023-10-31T09:14:13;16.85;;;7.55;;
22939;SDS011;11636;52.086;5.090;2023-10-31T09:16:40;14.82;;;8.13;;
22939;SDS011;11636;52.086;5.090;2023-10-31T09:19:14;13.27;;;7.80;;
22939;SDS011;11636;52.086;5.090;2023-10-31T09:21:41;14.32;;;6.93;;
22939;SDS011;11636;52.086;5.090;2023-10-31T09:24:14;11.90;;;6.97;;
22939;SDS011;11636;52.086;5.090;2023-10-31T09:26:44;18.08;;;7.60;;
22939;SDS011;11636;52.086;5.090;2023-10-31T09:29:17;15.52;;;8.88;;
22939;SDS011;11636;52.086;5.090;2023-10-31T09:31:55;14.50;;;7.03;;
22939;SDS011;11636;52.086;5.090;2023-10-31T09:34:22;16.40;;;8.13;;
22939;SDS011;11636;52.086;5.090;2023-10-31T09:36:55;13.98;;;8.80;;
22939;SDS011;11636;52.086;5.090;2023-10-31T09:39:22;12.45;;;7.30;;
22939;SDS011;11636;52.086;5.090;2023-10-31T09:41:49;15.93;;;8.57;;
22939;SDS011;11636;52.086;5.090;2023-10-31T09:44:23;16.27;;;7.35;;
22939;SDS011;11636;52.086;5.090;2023-10-31T09:46:51;13.57;;;6.78;;
22939;SDS011;11636;52.086;5.090;2023-10-31T09:49:25;16.50;;;8.13;;
22939;SDS011;11636;52.086;5.090;2023-10-31T09:51:52;17.00;;;6.88;;
22939;SDS011;11636;52.086;5.090;2023-10-31T09:54:26;16.55;;;9.52;;
22939;SDS011;11636;52.086;5.090;2023-10-31T09:56:59;18.98;;;9.68;;
22939;SDS011;11636;52.086;5.090;2023-10-31T09:59:32;22.63;;;11.55;;
22939;SDS011;11636;52.086;5.090;2023-10-31T10:02:07;33.90;;;16.88;;
22939;SDS011;11636;52.086;5.090;2023-10-31T10:04:40;22.27;;;12.02;;
22939;SDS011;11636;52.086;5.090;2023-10-31T10:07:08;23.50;;;10.88;;
22939;SDS011;11636;52.086;5.090;2023-10-31T10:09:46;18.48;;;8.98;;
22939;SDS011;11636;52.086;5.090;2023-10-31T10:12:14;18.65;;;9.75;;
22939;SDS011;11636;52.086;5.090;2023-10-31T10:14:49;20.63;;;10.10;;
22939;SDS011;11636;52.086;5.090;2023-10-31T10:17:17;13.40;;;8.55;;
22939;SDS011;11636;52.086;5.090;2023-10-31T10:19:47;14.90;;;8.45;;
22939;SDS011;11636;52.086;5.090;2023-10-31T10:22:21;17.52;;;7.53;;
22939;SDS011;11636;52.086;5.090;2023-10-31T10:25:01;14.30;;;7.75;;
22939;SDS011;11636;52.086;5.090;2023-10-31T10:27:34;15.07;;;7.80;;
22939;SDS011;11636;52.086;5.090;2023-10-31T10:30:02;12.63;;;6.82;;
22939;SDS011;11636;52.086;5.090;2023-10-31T10:32:37;14.70;;;6.95;;
22939;SDS011;11636;52.086;5.090;2023-10-31T10:35:04;12.20;;;6.03;;
22939;SDS011;11636;52.086;5.090;2023-10-31T10:37:39;14.05;;;6.10;;
22939;SDS011;11636;52.086;5.090;2023-10-31T10:40:07;10.38;;;4.88;;
22939;SDS011;11636;52.086;5.090;2023-10-31T10:45:21;11.00;;;4.57;;
22939;SDS011;11636;52.086;5.090;2023-10-31T10:47:55;12.52;;;4.82;;
22939;SDS011;11636;52.086;5.090;2023-10-31T10:50:34;9.43;;;4.20;;
22939;SDS011;11636;52.086;5.090;2023-10-31T10:53:18;11.48;;;3.95;;
22939;SDS011;11636;52.086;5.090;2023-10-31T10:56:02;11.27;;;3.53;;
22939;SDS011;11636;52.086;5.090;2023-10-31T11:01:15;9.45;;;3.30;;
22939;SDS011;11636;52.086;5.090;2023-10-31T11:03:50;10.25;;;3.00;;
22939;SDS011;11636;52.086;5.090;2023-10-31T11:06:18;9.63;;;2.80;;
22939;SDS011;11636;52.086;5.090;2023-10-31T11:08:52;9.95;;;3.28;;
22939;SDS011;11636;52.086;5.090;2023-10-31T11:11:21;11.82;;;3.22;;
22939;SDS011;11636;52.086;5.090;2023-10-31T11:13:55;9.20;;;3.90;;
22939;SDS011;11636;52.086;5.090;2023-10-31T11:16:25;10.57;;;3.60;;
22939;SDS011;11636;52.086;5.090;2023-10-31T11:19:03;13.30;;;3.58;;
22939;SDS011;11636;52.086;5.090;2023-10-31T11:21:31;9.13;;;3.25;;
22939;SDS011;11636;52.086;5.090;2023-10-31T11:24:06;12.95;;;5.40;;
22939;SDS011;11636;52.086;5.090;2023-10-31T11:26:33;9.07;;;4.18;;
22939;SDS011;11636;52.086;5.090;2023-10-31T11:29:07;13.00;;;5.90;;
22939;SDS011;11636;52.086;5.090;2023-10-31T11:31:37;10.45;;;6.57;;
22939;SDS011;11636;52.086;5.090;2023-10-31T11:34:10;12.82;;;7.97;;
22939;SDS011;11636;52.086;5.090;2023-10-31T11:36:37;15.07;;;8.68;;
22939;SDS011;11636;52.086;5.090;2023-10-31T11:39:11;16.90;;;11.35;;
22939;SDS011;11636;52.086;5.090;2023-10-31T11:41:40;19.33;;;11.77;;
22939;SDS011;11636;52.086;5.090;2023-10-31T11:44:07;20.15;;;12.38;;
22939;SDS011;11636;52.086;5.090;2023-10-31T11:46:41;18.25;;;12.52;;
22939;SDS011;11636;52.086;5.090;2023-10-31T11:49:08;18.75;;;13.70;;
22939;SDS011;11636;52.086;5.090;2023-10-31T11:51:44;20.35;;;13.20;;
22939;SDS011;11636;52.086;5.090;2023-10-31T11:54:16;21.50;;;13.95;;
22939;SDS011;11636;52.086;5.090;2023-10-31T11:56:50;22.23;;;15.05;;
22939;SDS011;11636;52.086;5.090;2023-10-31T11:59:18;19.77;;;14.02;;
22939;SDS011;11636;52.086;5.090;2023-10-31T12:01:52;21.00;;;16.02;;
22939;SDS011;11636;52.086;5.090;2023-10-31T12:04:22;23.33;;;17.60;;
22939;SDS011;11636;52.086;5.090;2023-10-31T12:06:57;23.27;;;16.40;;
22939;SDS011;11636;52.086;5.090;2023-10-31T12:09:28;24.88;;;17.25;;
22939;SDS011;11636;52.086;5.090;2023-10-31T12:12:01;24.60;;;17.98;;
22939;SDS011;11636;52.086;5.090;2023-10-31T12:14:28;23.98;;;17.92;;
22939;SDS011;11636;52.086;5.090;2023-10-31T12:17:04;25.83;;;17.63;;
22939;SDS011;11636;52.086;5.090;2023-10-31T12:19:33;25.92;;;18.00;;
22939;SDS011;11636;52.086;5.090;2023-10-31T12:22:13;25.30;;;18.30;;
22939;SDS011;11636;52.086;5.090;2023-10-31T12:24:40;26.27;;;18.20;;
22939;SDS011;11636;52.086;5.090;2023-10-31T12:27:14;29.50;;;18.48;;
22939;SDS011;11636;52.086;5.090;2023-10-31T12:29:41;24.30;;;17.67;;
22939;SDS011;11636;52.086;5.090;2023-10-31T12:32:14;27.05;;;17.40;;
22939;SDS011;11636;52.086;5.090;2023-10-31T12:34:43;24.65;;;17.30;;
22939;SDS011;11636;52.086;5.090;2023-10-31T12:37:16;29.95;;;16.95;;
22939;SDS011;11636;52.086;5.090;2023-10-31T12:39:43;21.88;;;14.77;;
22939;SDS011;11636;52.086;5.090;2023-10-31T12:42:22;23.13;;;15.40;;
22939;SDS011;11636;52.086;5.090;2023-10-31T12:44:55;22.38;;;15.90;;
22939;SDS011;11636;52.086;5.090;2023-10-31T12:47:29;24.85;;;15.82;;
22939;SDS011;11636;52.086;5.090;2023-10-31T12:55:13;22.88;;;15.43;;
22939;SDS011;11636;52.086;5.090;2023-10-31T12:57:51;22.63;;;14.93;;
22939;SDS011;11636;52.086;5.090;2023-10-31T13:00:19;21.20;;;15.23;;
22939;SDS011;11636;52.086;5.090;2023-10-31T13:05:33;26.83;;;18.08;;
22939;SDS011;11636;52.086;5.090;2023-10-31T13:08:14;26.63;;;18.65;;
22939;SDS011;11636;52.086;5.090;2023-10-31T13:10:42;22.98;;;16.25;;
22939;SDS011;11636;52.086;5.090;2023-10-31T13:13:16;21.95;;;16.40;;
22939;SDS011;11636;52.086;5.090;2023-10-31T13:15:43;31.25;;;21.00;;
22939;SDS011;11636;52.086;5.090;2023-10-31T13:18:16;27.33;;;20.42;;
22939;SDS011;11636;52.086;5.090;2023-10-31T13:20:43;30.00;;;21.63;;
22939;SDS011;11636;52.086;5.090;2023-10-31T13:23:17;26.52;;;20.35;;
22939;SDS011;11636;52.086;5.090;2023-10-31T13:25:45;30.48;;;21.02;;
22939;SDS011;11636;52.086;5.090;2023-10-31T13:28:11;29.75;;;21.73;;
22939;SDS011;11636;52.086;5.090;2023-10-31T13:30:46;29.73;;;21.67;;
22939;SDS011;11636;52.086;5.090;2023-10-31T13:33:21;36.17;;;25.40;;
22939;SDS011;11636;52.086;5.090;2023-10-31T13:35:54;32.13;;;23.73;;
22939;SDS011;11636;52.086;5.090;2023-10-31T13:38:21;29.48;;;22.58;;
22939;SDS011;11636;52.086;5.090;2023-10-31T13:40:54;33.38;;;23.95;;
22939;SDS011;11636;52.086;5.090;2023-10-31T13:43:21;35.67;;;25.40;;
22939;SDS011;11636;52.086;5.090;2023-10-31T13:45:55;32.20;;;24.60;;
22939;SDS011;11636;52.086;5.090;2023-10-31T13:48:22;32.38;;;24.50;;
22939;SDS011;11636;52.086;5.090;2023-10-31T13:50:56;32.75;;;23.80;;
22939;SDS011;11636;52.086;5.090;2023-10-31T13:53:29;29.85;;;23.40;;
22939;SDS011;11636;52.086;5.090;2023-10-31T13:56:02;30.33;;;23.38;;
22939;SDS011;11636;52.086;5.090;2023-10-31T13:58:36;27.63;;;22.67;;
22939;SDS011;11636;52.086;5.090;2023-10-31T14:01:09;31.08;;;23.08;;
22939;SDS011;11636;52.086;5.090;2023-10-31T14:03:42;27.85;;;22.15;;
22939;SDS011;11636;52.086;5.090;2023-10-31T14:06:17;28.58;;;22.55;;
22939;SDS011;11636;52.086;5.090;2023-10-31T14:08:51;27.08;;;21.50;;
22939;SDS011;11636;52.086;5.090;2023-10-31T14:11:24;26.05;;;20.58;;
22939;SDS011;11636;52.086;5.090;2023-10-31T14:13:52;27.02;;;20.65;;
22939;SDS011;11636;52.086;5.090;2023-10-31T14:16:25;27.48;;;20.25;;
22939;SDS011;11636;52.086;5.090;2023-10-31T14:18:59;27.13;;;20.85;;
22939;SDS011;11636;52.086;5.090;2023-10-31T14:21:28;27.15;;;20.58;;
22939;SDS011;11636;52.086;5.090;2023-10-31T14:23:55;29.13;;;21.23;;
22939;SDS011;11636;52.086;5.090;2023-10-31T14:26:37;23.25;;;18.20;;
22939;SDS011;11636;52.086;5.090;2023-10-31T14:29:12;25.33;;;20.23;;
22939;SDS011;11636;52.086;5.090;2023-10-31T14:31:40;27.88;;;21.33;;
22939;SDS011;11636;52.086;5.090;2023-10-31T14:34:18;35.17;;;25.50;;
22939;SDS011;11636;52.086;5.090;2023-10-31T14:36:45;35.47;;;28.60;;
22939;SDS011;11636;52.086;5.090;2023-10-31T14:39:18;38.08;;;29.77;;
22939;SDS011;11636;52.086;5.090;2023-10-31T14:41:45;39.97;;;30.73;;
22939;SDS011;11636;52.086;5.090;2023-10-31T14:44:18;34.75;;;28.60;;
22939;SDS011;11636;52.086;5.090;2023-10-31T14:46:47;38.25;;;30.52;;
22939;SDS011;11636;52.086;5.090;2023-10-31T14:49:20;35.45;;;28.80;;
22939;SDS011;11636;52.086;5.090;2023-10-31T14:51:47;34.55;;;28.50;;
22939;SDS011;11636;52.086;5.090;2023-10-31T14:54:20;34.97;;;27.58;;
22939;SDS011;11636;52.086;5.090;2023-10-31T14:56:47;29.70;;;25.70;;
22939;SDS011;11636;52.086;5.090;2023-10-31T14:59:20;27.90;;;23.60;;
22939;SDS011;11636;52.086;5.090;2023-10-31T15:01:47;28.50;;;23.13;;
22939;SDS011;11636;52.086;5.090;2023-10-31T15:04:21;28.17;;;22.75;;
22939;SDS011;11636;52.086;5.090;2023-10-31T15:06:48;26.58;;;21.85;;
22939;SDS011;11636;52.086;5.090;2023-10-31T15:09:15;25.15;;;21.35;;